sensor_id;sensor_type;location;lat;lon;timestamp;temperature;humidity
13892;DHT22;7016;48.172;8.058;2023-08-12T00:01:42;19.30;99.90
13892;DHT22;7016;48.172;8.058;2023-08-12T00:04:07;19.30;99.90
13892;DHT22;7016;48.172;8.058;2023-08-12T00:06:33;19.30;99.90
13892;DHT22;7016;48.172;8.058;2023-08-12T00:08:59;19.30;99.90
13892;DHT22;7016;48.172;8.058;2023-08-12T00:11:24;19.30;99.90
13892;DHT22;7016;48.172;8.058;2023-08-12T00:13:50;19.30;99.90
13892;DHT22;7016;48.172;8.058;2023-08-12T00:16:15;19.30;99.90
13892;DHT22;7016;48.172;8.058;2023-08-12T00:18:41;19.40;99.90
13892;DHT22;7016;48.172;8.058;2023-08-12T00:21:09;19.40;99.90
13892;DHT22;7016;48.172;8.058;2023-08-12T00:23:39;19.40;99.90
13892;DHT22;7016;48.172;8.058;2023-08-12T00:26:10;19.50;99.90
13892;DHT22;7016;48.172;8.058;2023-08-12T00:28:36;19.50;99.90
13892;DHT22;7016;48.172;8.058;2023-08-12T00:31:02;19.50;99.90
13892;DHT22;7016;48.172;8.058;2023-08-12T00:33:28;19.40;99.90
13892;DHT22;7016;48.172;8.058;2023-08-12T00:35:53;19.50;99.90
13892;DHT22;7016;48.172;8.058;2023-08-12T00:38:19;19.40;99.90
13892;DHT22;7016;48.172;8.058;2023-08-12T00:40:45;19.30;99.90
13892;DHT22;7016;48.172;8.058;2023-08-12T00:43:11;19.40;99.90
13892;DHT22;7016;48.172;8.058;2023-08-12T00:45:36;19.40;99.90
13892;DHT22;7016;48.172;8.058;2023-08-12T00:48:06;19.40;99.90
13892;DHT22;7016;48.172;8.058;2023-08-12T00:50:32;19.40;99.90
13892;DHT22;7016;48.172;8.058;2023-08-12T00:52:58;19.30;99.90
13892;DHT22;7016;48.172;8.058;2023-08-12T00:55:24;19.30;99.90
13892;DHT22;7016;48.172;8.058;2023-08-12T00:57:50;19.30;99.90
13892;DHT22;7016;48.172;8.058;2023-08-12T01:00:17;19.30;99.90
13892;DHT22;7016;48.172;8.058;2023-08-12T01:02:46;19.40;99.90
13892;DHT22;7016;48.172;8.058;2023-08-12T01:05:17;19.40;99.90
13892;DHT22;7016;48.172;8.058;2023-08-12T01:07:43;19.40;99.90
13892;DHT22;7016;48.172;8.058;2023-08-12T01:10:09;19.40;99.90
13892;DHT22;7016;48.172;8.058;2023-08-12T01:16:05;19.40;99.90
13892;DHT22;7016;48.172;8.058;2023-08-12T01:18:33;19.30;99.90
13892;DHT22;7016;48.172;8.058;2023-08-12T01:20:59;19.40;99.90
13892;DHT22;7016;48.172;8.058;2023-08-12T01:23:25;19.30;99.90
13892;DHT22;7016;48.172;8.058;2023-08-12T01:25:51;19.30;99.90
13892;DHT22;7016;48.172;8.058;2023-08-12T01:28:17;19.40;99.90
13892;DHT22;7016;48.172;8.058;2023-08-12T01:33:42;19.20;99.90
13892;DHT22;7016;48.172;8.058;2023-08-12T01:36:14;19.20;99.90
13892;DHT22;7016;48.172;8.058;2023-08-12T01:38:41;19.20;99.90
13892;DHT22;7016;48.172;8.058;2023-08-12T01:41:10;19.20;99.90
13892;DHT22;7016;48.172;8.058;2023-08-12T01:43:36;19.30;99.90
13892;DHT22;7016;48.172;8.058;2023-08-12T01:46:01;19.20;99.90
13892;DHT22;7016;48.172;8.058;2023-08-12T01:48:27;19.30;99.90
13892;DHT22;7016;48.172;8.058;2023-08-12T01:50:53;19.40;99.90
13892;DHT22;7016;48.172;8.058;2023-08-12T01:53:19;19.20;99.90
13892;DHT22;7016;48.172;8.058;2023-08-12T01:55:44;19.30;99.90
13892;DHT22;7016;48.172;8.058;2023-08-12T01:58:10;19.30;99.90
13892;DHT22;7016;48.172;8.058;2023-08-12T02:00:36;19.30;99.90
13892;DHT22;7016;48.172;8.058;2023-08-12T02:03:02;19.30;99.90
13892;DHT22;7016;48.172;8.058;2023-08-12T02:05:28;19.20;99.90
13892;DHT22;7016;48.172;8.058;2023-08-12T02:07:53;19.20;99.90
13892;DHT22;7016;48.172;8.058;2023-08-12T02:10:19;19.20;99.90
13892;DHT22;7016;48.172;8.058;2023-08-12T02:12:45;19.20;99.90
13892;DHT22;7016;48.172;8.058;2023-08-12T02:15:11;19.30;99.90
13892;DHT22;7016;48.172;8.058;2023-08-12T02:17:36;19.30;99.90
13892;DHT22;7016;48.172;8.058;2023-08-12T02:20:03;19.30;99.90
13892;DHT22;7016;48.172;8.058;2023-08-12T02:22:29;19.20;99.90
13892;DHT22;7016;48.172;8.058;2023-08-12T02:24:55;19.20;99.90
13892;DHT22;7016;48.172;8.058;2023-08-12T02:27:21;19.20;99.90
13892;DHT22;7016;48.172;8.058;2023-08-12T02:29:47;19.20;99.90
13892;DHT22;7016;48.172;8.058;2023-08-12T02:32:12;19.20;99.90
13892;DHT22;7016;48.172;8.058;2023-08-12T02:34:38;19.20;99.90
13892;DHT22;7016;48.172;8.058;2023-08-12T02:37:04;19.20;99.90
13892;DHT22;7016;48.172;8.058;2023-08-12T02:39:29;19.20;99.90
13892;DHT22;7016;48.172;8.058;2023-08-12T02:41:55;19.40;99.90
13892;DHT22;7016;48.172;8.058;2023-08-12T02:44:21;19.30;99.90
13892;DHT22;7016;48.172;8.058;2023-08-12T02:46:46;19.30;99.90
13892;DHT22;7016;48.172;8.058;2023-08-12T02:49:12;19.30;99.90
13892;DHT22;7016;48.172;8.058;2023-08-12T02:51:38;19.40;99.90
13892;DHT22;7016;48.172;8.058;2023-08-12T02:54:03;19.40;99.90
13892;DHT22;7016;48.172;8.058;2023-08-12T02:56:29;19.40;99.90
13892;DHT22;7016;48.172;8.058;2023-08-12T02:58:55;19.30;99.90
13892;DHT22;7016;48.172;8.058;2023-08-12T03:01:23;19.20;99.90
13892;DHT22;7016;48.172;8.058;2023-08-12T03:03:50;19.20;99.90
13892;DHT22;7016;48.172;8.058;2023-08-12T03:06:16;19.10;99.90
13892;DHT22;7016;48.172;8.058;2023-08-12T03:08:43;19.10;99.90
13892;DHT22;7016;48.172;8.058;2023-08-12T03:11:08;19.00;99.90
13892;DHT22;7016;48.172;8.058;2023-08-12T03:13:34;19.00;99.90
13892;DHT22;7016;48.172;8.058;2023-08-12T03:15:59;18.90;99.90
13892;DHT22;7016;48.172;8.058;2023-08-12T03:18:25;18.80;99.90
13892;DHT22;7016;48.172;8.058;2023-08-12T03:20:51;18.80;99.90
13892;DHT22;7016;48.172;8.058;2023-08-12T03:23:17;18.80;99.90
13892;DHT22;7016;48.172;8.058;2023-08-12T03:25:42;18.90;99.90
13892;DHT22;7016;48.172;8.058;2023-08-12T03:28:08;19.00;99.90
13892;DHT22;7016;48.172;8.058;2023-08-12T03:30:33;19.00;99.90
13892;DHT22;7016;48.172;8.058;2023-08-12T03:32:59;19.00;99.90
13892;DHT22;7016;48.172;8.058;2023-08-12T03:35:25;19.00;99.90
13892;DHT22;7016;48.172;8.058;2023-08-12T03:37:50;19.00;99.90
13892;DHT22;7016;48.172;8.058;2023-08-12T03:40:17;19.10;99.90
13892;DHT22;7016;48.172;8.058;2023-08-12T03:42:43;19.00;99.90
13892;DHT22;7016;48.172;8.058;2023-08-12T03:45:09;19.00;99.90
13892;DHT22;7016;48.172;8.058;2023-08-12T03:47:35;19.00;99.90
13892;DHT22;7016;48.172;8.058;2023-08-12T03:50:00;19.00;99.90
13892;DHT22;7016;48.172;8.058;2023-08-12T03:52:26;19.10;99.90
13892;DHT22;7016;48.172;8.058;2023-08-12T03:54:52;19.00;99.90
13892;DHT22;7016;48.172;8.058;2023-08-12T03:57:18;19.00;99.90
13892;DHT22;7016;48.172;8.058;2023-08-12T03:59:44;18.90;99.90
13892;DHT22;7016;48.172;8.058;2023-08-12T04:02:10;18.90;99.90
13892;DHT22;7016;48.172;8.058;2023-08-12T04:04:36;18.90;99.90
13892;DHT22;7016;48.172;8.058;2023-08-12T04:07:01;18.90;99.90
13892;DHT22;7016;48.172;8.058;2023-08-12T04:09:27;18.80;99.90
13892;DHT22;7016;48.172;8.058;2023-08-12T04:11:53;18.80;99.90
13892;DHT22;7016;48.172;8.058;2023-08-12T04:14:18;18.80;99.90
13892;DHT22;7016;48.172;8.058;2023-08-12T04:16:44;18.80;99.90
13892;DHT22;7016;48.172;8.058;2023-08-12T04:19:10;18.90;99.90
13892;DHT22;7016;48.172;8.058;2023-08-12T04:21:35;18.80;99.90
13892;DHT22;7016;48.172;8.058;2023-08-12T04:24:01;18.80;99.90
13892;DHT22;7016;48.172;8.058;2023-08-12T04:26:27;18.70;99.90
13892;DHT22;7016;48.172;8.058;2023-08-12T04:28:52;18.80;99.90
13892;DHT22;7016;48.172;8.058;2023-08-12T04:31:18;18.90;99.90
13892;DHT22;7016;48.172;8.058;2023-08-12T04:33:44;18.90;99.90
13892;DHT22;7016;48.172;8.058;2023-08-12T04:36:09;18.90;99.90
13892;DHT22;7016;48.172;8.058;2023-08-12T04:38:35;18.90;99.90
13892;DHT22;7016;48.172;8.058;2023-08-12T04:41:00;18.80;99.90
13892;DHT22;7016;48.172;8.058;2023-08-12T04:43:26;18.70;99.90
13892;DHT22;7016;48.172;8.058;2023-08-12T04:45:52;18.80;99.90
13892;DHT22;7016;48.172;8.058;2023-08-12T04:48:18;18.80;99.90
13892;DHT22;7016;48.172;8.058;2023-08-12T04:50:44;18.80;99.90
13892;DHT22;7016;48.172;8.058;2023-08-12T04:53:09;18.80;99.90
13892;DHT22;7016;48.172;8.058;2023-08-12T04:55:35;18.80;99.90
13892;DHT22;7016;48.172;8.058;2023-08-12T04:58:02;18.80;99.90
13892;DHT22;7016;48.172;8.058;2023-08-12T05:00:28;18.90;99.90
13892;DHT22;7016;48.172;8.058;2023-08-12T05:02:54;18.90;99.90
13892;DHT22;7016;48.172;8.058;2023-08-12T05:05:20;18.90;99.90
13892;DHT22;7016;48.172;8.058;2023-08-12T05:07:46;18.90;99.90
13892;DHT22;7016;48.172;8.058;2023-08-12T05:10:16;19.00;99.90
13892;DHT22;7016;48.172;8.058;2023-08-12T05:12:43;19.10;99.90
13892;DHT22;7016;48.172;8.058;2023-08-12T05:15:10;19.00;99.90
13892;DHT22;7016;48.172;8.058;2023-08-12T05:17:35;19.00;99.90
13892;DHT22;7016;48.172;8.058;2023-08-12T05:20:01;19.00;99.90
13892;DHT22;7016;48.172;8.058;2023-08-12T05:22:27;19.00;99.90
13892;DHT22;7016;48.172;8.058;2023-08-12T05:24:52;18.80;99.90
13892;DHT22;7016;48.172;8.058;2023-08-12T05:27:18;18.60;99.90
13892;DHT22;7016;48.172;8.058;2023-08-12T05:29:44;18.60;99.90
13892;DHT22;7016;48.172;8.058;2023-08-12T05:32:09;18.70;99.90
13892;DHT22;7016;48.172;8.058;2023-08-12T05:34:35;18.80;99.90
13892;DHT22;7016;48.172;8.058;2023-08-12T05:37:01;18.80;99.90
13892;DHT22;7016;48.172;8.058;2023-08-12T05:39:27;18.90;99.90
13892;DHT22;7016;48.172;8.058;2023-08-12T05:41:52;19.00;99.90
13892;DHT22;7016;48.172;8.058;2023-08-12T05:44:18;19.00;99.90
13892;DHT22;7016;48.172;8.058;2023-08-12T05:46:44;19.00;99.90
13892;DHT22;7016;48.172;8.058;2023-08-12T05:49:09;19.10;99.90
13892;DHT22;7016;48.172;8.058;2023-08-12T05:51:35;19.20;99.90
13892;DHT22;7016;48.172;8.058;2023-08-12T05:54:01;19.20;99.90
13892;DHT22;7016;48.172;8.058;2023-08-12T05:56:26;19.20;99.90
13892;DHT22;7016;48.172;8.058;2023-08-12T05:58:52;19.20;99.90
13892;DHT22;7016;48.172;8.058;2023-08-12T06:01:18;19.20;99.90
13892;DHT22;7016;48.172;8.058;2023-08-12T06:03:44;19.20;99.90
13892;DHT22;7016;48.172;8.058;2023-08-12T06:06:10;19.30;99.90
13892;DHT22;7016;48.172;8.058;2023-08-12T06:08:35;19.30;99.90
13892;DHT22;7016;48.172;8.058;2023-08-12T06:11:01;19.30;99.90
13892;DHT22;7016;48.172;8.058;2023-08-12T06:13:27;19.40;99.90
13892;DHT22;7016;48.172;8.058;2023-08-12T06:15:52;19.50;99.90
13892;DHT22;7016;48.172;8.058;2023-08-12T06:18:18;19.60;99.90
13892;DHT22;7016;48.172;8.058;2023-08-12T06:20:44;19.60;99.90
13892;DHT22;7016;48.172;8.058;2023-08-12T06:23:09;19.70;99.90
13892;DHT22;7016;48.172;8.058;2023-08-12T06:25:35;19.70;99.90
13892;DHT22;7016;48.172;8.058;2023-08-12T06:28:02;19.60;99.90
13892;DHT22;7016;48.172;8.058;2023-08-12T06:30:30;19.70;99.90
13892;DHT22;7016;48.172;8.058;2023-08-12T06:32:56;19.60;99.90
13892;DHT22;7016;48.172;8.058;2023-08-12T06:35:21;19.50;99.90
13892;DHT22;7016;48.172;8.058;2023-08-12T06:37:47;19.50;99.90
13892;DHT22;7016;48.172;8.058;2023-08-12T06:40:13;19.60;99.90
13892;DHT22;7016;48.172;8.058;2023-08-12T06:42:38;19.50;99.90
13892;DHT22;7016;48.172;8.058;2023-08-12T06:45:04;19.70;99.90
13892;DHT22;7016;48.172;8.058;2023-08-12T06:47:30;19.80;99.90
13892;DHT22;7016;48.172;8.058;2023-08-12T06:49:56;19.80;99.90
13892;DHT22;7016;48.172;8.058;2023-08-12T06:52:22;19.90;99.90
13892;DHT22;7016;48.172;8.058;2023-08-12T06:54:48;20.00;99.90
13892;DHT22;7016;48.172;8.058;2023-08-12T06:57:13;19.90;99.90
13892;DHT22;7016;48.172;8.058;2023-08-12T06:59:39;19.90;99.90
13892;DHT22;7016;48.172;8.058;2023-08-12T07:02:06;20.30;99.90
13892;DHT22;7016;48.172;8.058;2023-08-12T07:04:32;20.40;99.90
13892;DHT22;7016;48.172;8.058;2023-08-12T07:06:57;20.60;99.90
13892;DHT22;7016;48.172;8.058;2023-08-12T07:09:23;20.60;99.90
13892;DHT22;7016;48.172;8.058;2023-08-12T07:11:49;20.60;99.90
13892;DHT22;7016;48.172;8.058;2023-08-12T07:14:14;20.60;99.90
13892;DHT22;7016;48.172;8.058;2023-08-12T07:16:40;20.70;99.90
13892;DHT22;7016;48.172;8.058;2023-08-12T07:19:06;20.70;99.90
13892;DHT22;7016;48.172;8.058;2023-08-12T07:21:31;20.70;99.90
13892;DHT22;7016;48.172;8.058;2023-08-12T07:23:57;20.70;99.90
13892;DHT22;7016;48.172;8.058;2023-08-12T07:26:22;20.90;99.90
13892;DHT22;7016;48.172;8.058;2023-08-12T07:28:48;21.10;99.90
13892;DHT22;7016;48.172;8.058;2023-08-12T07:31:14;21.20;99.90
13892;DHT22;7016;48.172;8.058;2023-08-12T07:33:40;21.30;99.90
13892;DHT22;7016;48.172;8.058;2023-08-12T07:36:05;21.40;99.90
13892;DHT22;7016;48.172;8.058;2023-08-12T07:38:31;21.50;99.90
13892;DHT22;7016;48.172;8.058;2023-08-12T07:40:57;21.50;99.90
13892;DHT22;7016;48.172;8.058;2023-08-12T07:43:23;21.70;99.90
13892;DHT22;7016;48.172;8.058;2023-08-12T07:45:54;21.60;99.90
13892;DHT22;7016;48.172;8.058;2023-08-12T07:48:20;21.80;99.90
13892;DHT22;7016;48.172;8.058;2023-08-12T07:50:46;21.90;99.90
13892;DHT22;7016;48.172;8.058;2023-08-12T07:53:15;21.90;99.90
13892;DHT22;7016;48.172;8.058;2023-08-12T07:55:42;21.90;99.90
13892;DHT22;7016;48.172;8.058;2023-08-12T07:58:08;21.90;99.90
13892;DHT22;7016;48.172;8.058;2023-08-12T08:00:34;21.90;99.90
13892;DHT22;7016;48.172;8.058;2023-08-12T08:02:59;21.90;99.90
13892;DHT22;7016;48.172;8.058;2023-08-12T08:05:25;21.90;99.90
13892;DHT22;7016;48.172;8.058;2023-08-12T08:07:51;21.90;99.90
13892;DHT22;7016;48.172;8.058;2023-08-12T08:10:16;22.00;99.90
13892;DHT22;7016;48.172;8.058;2023-08-12T08:12:42;22.00;99.90
13892;DHT22;7016;48.172;8.058;2023-08-12T08:15:08;22.00;99.90
13892;DHT22;7016;48.172;8.058;2023-08-12T08:17:34;22.00;99.90
13892;DHT22;7016;48.172;8.058;2023-08-12T08:19:59;22.00;99.90
13892;DHT22;7016;48.172;8.058;2023-08-12T08:22:25;22.00;99.90
13892;DHT22;7016;48.172;8.058;2023-08-12T08:24:51;22.00;99.90
13892;DHT22;7016;48.172;8.058;2023-08-12T08:27:16;22.10;99.90
13892;DHT22;7016;48.172;8.058;2023-08-12T08:29:42;22.10;99.90
13892;DHT22;7016;48.172;8.058;2023-08-12T08:32:08;22.00;99.90
13892;DHT22;7016;48.172;8.058;2023-08-12T08:34:34;22.00;99.90
13892;DHT22;7016;48.172;8.058;2023-08-12T08:36:59;22.00;99.90
13892;DHT22;7016;48.172;8.058;2023-08-12T08:39:25;22.00;99.90
13892;DHT22;7016;48.172;8.058;2023-08-12T08:41:53;22.00;99.90
13892;DHT22;7016;48.172;8.058;2023-08-12T08:44:22;22.00;99.90
13892;DHT22;7016;48.172;8.058;2023-08-12T08:46:53;21.90;99.90
13892;DHT22;7016;48.172;8.058;2023-08-12T08:49:19;21.90;99.90
13892;DHT22;7016;48.172;8.058;2023-08-12T08:51:46;21.80;99.90
13892;DHT22;7016;48.172;8.058;2023-08-12T08:54:12;21.80;99.90
13892;DHT22;7016;48.172;8.058;2023-08-12T08:56:39;21.80;99.90
13892;DHT22;7016;48.172;8.058;2023-08-12T08:59:05;21.80;99.90
13892;DHT22;7016;48.172;8.058;2023-08-12T09:01:31;21.90;99.90
13892;DHT22;7016;48.172;8.058;2023-08-12T09:03:57;21.90;99.90
13892;DHT22;7016;48.172;8.058;2023-08-12T09:06:28;21.90;99.90
13892;DHT22;7016;48.172;8.058;2023-08-12T09:08:54;21.90;99.90
13892;DHT22;7016;48.172;8.058;2023-08-12T09:11:20;22.00;99.90
13892;DHT22;7016;48.172;8.058;2023-08-12T09:13:46;22.00;99.90
13892;DHT22;7016;48.172;8.058;2023-08-12T09:16:13;22.10;99.90
13892;DHT22;7016;48.172;8.058;2023-08-12T09:18:41;22.30;99.90
13892;DHT22;7016;48.172;8.058;2023-08-12T09:21:08;22.40;99.90
13892;DHT22;7016;48.172;8.058;2023-08-12T09:23:38;22.50;99.90
13892;DHT22;7016;48.172;8.058;2023-08-12T09:26:19;22.80;99.90
13892;DHT22;7016;48.172;8.058;2023-08-12T09:28:45;22.90;99.90
13892;DHT22;7016;48.172;8.058;2023-08-12T09:31:28;22.90;99.90
13892;DHT22;7016;48.172;8.058;2023-08-12T09:34:06;22.90;99.90
13892;DHT22;7016;48.172;8.058;2023-08-12T09:36:33;23.00;99.90
13892;DHT22;7016;48.172;8.058;2023-08-12T09:38:59;23.00;99.90
13892;DHT22;7016;48.172;8.058;2023-08-12T09:41:27;23.00;99.90
13892;DHT22;7016;48.172;8.058;2023-08-12T09:43:54;22.90;99.90
13892;DHT22;7016;48.172;8.058;2023-08-12T09:46:22;23.00;99.90
13892;DHT22;7016;48.172;8.058;2023-08-12T09:48:50;22.90;99.90
13892;DHT22;7016;48.172;8.058;2023-08-12T09:51:17;22.90;99.90
13892;DHT22;7016;48.172;8.058;2023-08-12T09:53:42;22.90;99.90
13892;DHT22;7016;48.172;8.058;2023-08-12T09:56:11;23.20;99.90
13892;DHT22;7016;48.172;8.058;2023-08-12T09:58:37;23.30;99.90
13892;DHT22;7016;48.172;8.058;2023-08-12T10:01:05;23.50;99.90
13892;DHT22;7016;48.172;8.058;2023-08-12T10:03:33;23.60;99.90
13892;DHT22;7016;48.172;8.058;2023-08-12T10:06:01;23.70;99.90
13892;DHT22;7016;48.172;8.058;2023-08-12T10:08:29;23.90;99.90
13892;DHT22;7016;48.172;8.058;2023-08-12T10:10:55;24.00;99.90
13892;DHT22;7016;48.172;8.058;2023-08-12T10:13:21;24.10;99.90
13892;DHT22;7016;48.172;8.058;2023-08-12T10:15:49;24.20;99.90
13892;DHT22;7016;48.172;8.058;2023-08-12T10:18:15;24.30;99.90
13892;DHT22;7016;48.172;8.058;2023-08-12T10:20:44;24.40;99.90
13892;DHT22;7016;48.172;8.058;2023-08-12T10:23:15;24.40;99.90
13892;DHT22;7016;48.172;8.058;2023-08-12T10:25:42;24.40;99.90
13892;DHT22;7016;48.172;8.058;2023-08-12T10:28:08;24.40;99.90
13892;DHT22;7016;48.172;8.058;2023-08-12T10:30:35;24.40;99.90
13892;DHT22;7016;48.172;8.058;2023-08-12T10:33:00;24.50;99.90
13892;DHT22;7016;48.172;8.058;2023-08-12T10:35:48;24.50;99.90
13892;DHT22;7016;48.172;8.058;2023-08-12T10:38:20;24.50;99.90
13892;DHT22;7016;48.172;8.058;2023-08-12T10:40:47;24.60;99.90
13892;DHT22;7016;48.172;8.058;2023-08-12T10:43:13;24.50;99.90
13892;DHT22;7016;48.172;8.058;2023-08-12T10:50:34;24.60;99.90
13892;DHT22;7016;48.172;8.058;2023-08-12T10:53:29;24.60;99.90
13892;DHT22;7016;48.172;8.058;2023-08-12T10:56:02;24.70;99.90
13892;DHT22;7016;48.172;8.058;2023-08-12T10:58:34;24.70;99.90
13892;DHT22;7016;48.172;8.058;2023-08-12T11:01:00;24.80;99.90
13892;DHT22;7016;48.172;8.058;2023-08-12T11:03:26;24.80;99.90
13892;DHT22;7016;48.172;8.058;2023-08-12T11:05:59;24.80;99.90
13892;DHT22;7016;48.172;8.058;2023-08-12T11:08:26;24.80;99.90
13892;DHT22;7016;48.172;8.058;2023-08-12T11:10:55;24.80;99.90
13892;DHT22;7016;48.172;8.058;2023-08-12T11:13:21;24.70;99.90
13892;DHT22;7016;48.172;8.058;2023-08-12T11:15:47;24.70;99.90
13892;DHT22;7016;48.172;8.058;2023-08-12T11:18:17;24.70;99.90
13892;DHT22;7016;48.172;8.058;2023-08-12T11:20:43;24.70;99.90
13892;DHT22;7016;48.172;8.058;2023-08-12T11:23:10;24.50;99.90
13892;DHT22;7016;48.172;8.058;2023-08-12T11:25:39;24.10;99.90
13892;DHT22;7016;48.172;8.058;2023-08-12T11:28:06;23.70;99.90
13892;DHT22;7016;48.172;8.058;2023-08-12T11:30:32;23.50;99.90
13892;DHT22;7016;48.172;8.058;2023-08-12T11:32:58;23.20;99.90
13892;DHT22;7016;48.172;8.058;2023-08-12T11:35:24;23.20;99.90
13892;DHT22;7016;48.172;8.058;2023-08-12T11:37:53;23.10;99.90
13892;DHT22;7016;48.172;8.058;2023-08-12T11:40:21;23.00;99.90
13892;DHT22;7016;48.172;8.058;2023-08-12T11:42:48;23.00;99.90
13892;DHT22;7016;48.172;8.058;2023-08-12T11:45:20;23.00;99.90
13892;DHT22;7016;48.172;8.058;2023-08-12T11:47:46;23.00;99.90
13892;DHT22;7016;48.172;8.058;2023-08-12T11:50:23;23.00;99.90
13892;DHT22;7016;48.172;8.058;2023-08-12T11:52:50;23.10;99.90
13892;DHT22;7016;48.172;8.058;2023-08-12T11:55:16;23.10;99.90
13892;DHT22;7016;48.172;8.058;2023-08-12T11:57:43;23.10;99.90
13892;DHT22;7016;48.172;8.058;2023-08-12T12:00:11;23.10;99.90
13892;DHT22;7016;48.172;8.058;2023-08-12T12:02:45;23.20;99.90
13892;DHT22;7016;48.172;8.058;2023-08-12T12:05:11;23.10;99.90
13892;DHT22;7016;48.172;8.058;2023-08-12T12:07:38;23.10;99.90
13892;DHT22;7016;48.172;8.058;2023-08-12T12:10:07;23.10;99.90
13892;DHT22;7016;48.172;8.058;2023-08-12T12:12:36;23.10;99.90
13892;DHT22;7016;48.172;8.058;2023-08-12T12:15:03;23.10;99.90
13892;DHT22;7016;48.172;8.058;2023-08-12T12:17:29;23.20;99.90
13892;DHT22;7016;48.172;8.058;2023-08-12T12:19:58;23.20;99.90
13892;DHT22;7016;48.172;8.058;2023-08-12T12:22:32;23.40;99.90
13892;DHT22;7016;48.172;8.058;2023-08-12T12:25:08;23.50;99.90
13892;DHT22;7016;48.172;8.058;2023-08-12T12:27:34;23.60;99.90
13892;DHT22;7016;48.172;8.058;2023-08-12T12:30:01;23.60;99.90
13892;DHT22;7016;48.172;8.058;2023-08-12T12:32:26;23.70;99.90
13892;DHT22;7016;48.172;8.058;2023-08-12T12:34:52;23.60;99.90
13892;DHT22;7016;48.172;8.058;2023-08-12T12:37:20;23.60;99.90
13892;DHT22;7016;48.172;8.058;2023-08-12T12:39:46;23.70;99.90
13892;DHT22;7016;48.172;8.058;2023-08-12T12:42:12;23.80;99.90
13892;DHT22;7016;48.172;8.058;2023-08-12T12:44:38;23.90;99.90
13892;DHT22;7016;48.172;8.058;2023-08-12T12:47:04;23.90;99.90
13892;DHT22;7016;48.172;8.058;2023-08-12T12:49:30;24.00;99.90
13892;DHT22;7016;48.172;8.058;2023-08-12T12:51:56;23.90;99.90
13892;DHT22;7016;48.172;8.058;2023-08-12T12:54:21;24.00;99.90
13892;DHT22;7016;48.172;8.058;2023-08-12T12:56:48;24.00;99.90
13892;DHT22;7016;48.172;8.058;2023-08-12T12:59:13;24.10;99.90
13892;DHT22;7016;48.172;8.058;2023-08-12T13:01:43;24.20;99.90
13892;DHT22;7016;48.172;8.058;2023-08-12T13:04:08;24.30;99.90
13892;DHT22;7016;48.172;8.058;2023-08-12T13:06:34;24.30;99.90
13892;DHT22;7016;48.172;8.058;2023-08-12T13:09:00;24.30;99.90
13892;DHT22;7016;48.172;8.058;2023-08-12T13:11:27;24.40;99.90
13892;DHT22;7016;48.172;8.058;2023-08-12T13:13:53;24.40;99.90
13892;DHT22;7016;48.172;8.058;2023-08-12T13:16:19;24.50;99.90
13892;DHT22;7016;48.172;8.058;2023-08-12T13:18:45;24.50;99.90
13892;DHT22;7016;48.172;8.058;2023-08-12T13:21:11;24.50;99.90
13892;DHT22;7016;48.172;8.058;2023-08-12T13:23:37;24.60;99.90
13892;DHT22;7016;48.172;8.058;2023-08-12T13:26:02;24.70;99.90
13892;DHT22;7016;48.172;8.058;2023-08-12T13:28:28;24.80;99.90
13892;DHT22;7016;48.172;8.058;2023-08-12T13:30:53;24.80;99.90
13892;DHT22;7016;48.172;8.058;2023-08-12T13:33:19;24.70;99.90
13892;DHT22;7016;48.172;8.058;2023-08-12T13:35:45;24.80;99.90
13892;DHT22;7016;48.172;8.058;2023-08-12T13:38:10;24.80;99.90
13892;DHT22;7016;48.172;8.058;2023-08-12T13:40:36;24.90;99.90
13892;DHT22;7016;48.172;8.058;2023-08-12T13:43:02;25.00;99.90
13892;DHT22;7016;48.172;8.058;2023-08-12T13:45:28;25.10;99.90
13892;DHT22;7016;48.172;8.058;2023-08-12T13:47:53;25.20;99.90
13892;DHT22;7016;48.172;8.058;2023-08-12T13:50:20;25.20;99.90
13892;DHT22;7016;48.172;8.058;2023-08-12T13:52:46;25.40;99.90
13892;DHT22;7016;48.172;8.058;2023-08-12T13:55:16;25.40;99.90
13892;DHT22;7016;48.172;8.058;2023-08-12T13:57:42;25.50;99.90
13892;DHT22;7016;48.172;8.058;2023-08-12T14:00:08;25.60;99.90
13892;DHT22;7016;48.172;8.058;2023-08-12T14:02:39;25.60;99.90
13892;DHT22;7016;48.172;8.058;2023-08-12T14:05:05;25.60;99.90
13892;DHT22;7016;48.172;8.058;2023-08-12T14:07:31;25.60;99.90
13892;DHT22;7016;48.172;8.058;2023-08-12T14:09:58;25.50;99.90
13892;DHT22;7016;48.172;8.058;2023-08-12T14:12:24;25.60;99.90
13892;DHT22;7016;48.172;8.058;2023-08-12T14:14:49;25.60;99.90
13892;DHT22;7016;48.172;8.058;2023-08-12T14:17:15;25.60;99.90
13892;DHT22;7016;48.172;8.058;2023-08-12T14:19:44;25.70;99.90
13892;DHT22;7016;48.172;8.058;2023-08-12T14:22:10;25.80;99.90
13892;DHT22;7016;48.172;8.058;2023-08-12T14:24:36;25.80;99.90
13892;DHT22;7016;48.172;8.058;2023-08-12T14:27:01;25.90;99.90
13892;DHT22;7016;48.172;8.058;2023-08-12T14:29:28;25.90;99.90
13892;DHT22;7016;48.172;8.058;2023-08-12T14:31:54;26.10;99.90
13892;DHT22;7016;48.172;8.058;2023-08-12T14:34:19;26.00;99.90
13892;DHT22;7016;48.172;8.058;2023-08-12T14:36:45;26.00;99.90
13892;DHT22;7016;48.172;8.058;2023-08-12T14:39:11;26.00;99.90
13892;DHT22;7016;48.172;8.058;2023-08-12T14:41:36;26.00;99.90
13892;DHT22;7016;48.172;8.058;2023-08-12T14:44:02;26.00;99.90
13892;DHT22;7016;48.172;8.058;2023-08-12T14:46:28;26.10;99.90
13892;DHT22;7016;48.172;8.058;2023-08-12T14:48:54;26.20;99.90
13892;DHT22;7016;48.172;8.058;2023-08-12T14:51:22;26.30;99.90
13892;DHT22;7016;48.172;8.058;2023-08-12T14:53:47;26.20;99.90
13892;DHT22;7016;48.172;8.058;2023-08-12T14:56:13;26.30;99.90
13892;DHT22;7016;48.172;8.058;2023-08-12T14:58:39;26.30;99.90
13892;DHT22;7016;48.172;8.058;2023-08-12T15:01:04;26.30;99.90
13892;DHT22;7016;48.172;8.058;2023-08-12T15:03:30;26.30;99.90
13892;DHT22;7016;48.172;8.058;2023-08-12T15:06:03;26.30;99.90
13892;DHT22;7016;48.172;8.058;2023-08-12T15:08:30;26.30;99.90
13892;DHT22;7016;48.172;8.058;2023-08-12T15:10:57;26.40;99.90
13892;DHT22;7016;48.172;8.058;2023-08-12T15:13:23;26.30;99.90
13892;DHT22;7016;48.172;8.058;2023-08-12T15:15:49;26.30;99.90
13892;DHT22;7016;48.172;8.058;2023-08-12T15:18:16;26.20;99.90
13892;DHT22;7016;48.172;8.058;2023-08-12T15:20:41;26.20;99.90
13892;DHT22;7016;48.172;8.058;2023-08-12T15:23:07;26.20;99.90
13892;DHT22;7016;48.172;8.058;2023-08-12T15:25:33;26.20;99.90
13892;DHT22;7016;48.172;8.058;2023-08-12T15:27:58;26.10;99.90
13892;DHT22;7016;48.172;8.058;2023-08-12T15:30:24;26.10;99.90
13892;DHT22;7016;48.172;8.058;2023-08-12T15:32:49;26.10;99.90
13892;DHT22;7016;48.172;8.058;2023-08-12T15:35:16;26.00;99.90
13892;DHT22;7016;48.172;8.058;2023-08-12T15:37:42;26.10;99.90
13892;DHT22;7016;48.172;8.058;2023-08-12T15:40:08;26.00;99.90
13892;DHT22;7016;48.172;8.058;2023-08-12T15:42:34;26.00;99.90
13892;DHT22;7016;48.172;8.058;2023-08-12T15:45:00;26.00;99.90
13892;DHT22;7016;48.172;8.058;2023-08-12T15:47:27;26.00;99.90
13892;DHT22;7016;48.172;8.058;2023-08-12T15:49:53;25.90;99.90
13892;DHT22;7016;48.172;8.058;2023-08-12T15:52:18;25.90;99.90